createdAt,value
2018-09-29T00:00:06.803Z,102904.57
2018-09-29T00:02:35.420Z,102906.00
2018-09-29T00:05:05.656Z,102895.59
2018-09-29T00:07:35.109Z,102898.73
2018-09-29T00:10:03.768Z,102902.63
2018-09-29T00:12:32.355Z,102904.06
2018-09-29T00:15:00.894Z,102907.58
2018-09-29T00:17:29.576Z,102905.68
2018-09-29T00:19:58.225Z,102905.85
2018-09-29T00:22:26.703Z,102903.22
2018-09-29T00:24:55.308Z,102908.59
2018-09-29T00:27:23.853Z,102912.22
2018-09-29T00:29:52.454Z,102906.61
2018-09-29T00:32:21.111Z,102915.95
2018-09-29T00:34:50.578Z,102909.92
2018-09-29T00:37:19.835Z,102909.16
2018-09-29T00:39:48.504Z,102910.44
2018-09-29T00:42:17.133Z,102906.78
2018-09-29T00:44:46.459Z,102901.64
2018-09-29T00:47:15.083Z,102903.61
2018-09-29T00:49:44.158Z,102897.38
2018-09-29T00:52:13.021Z,102901.55
2018-09-29T00:54:41.819Z,102907.66
2018-09-29T00:57:10.307Z,102903.44
2018-09-29T00:59:38.929Z,102906.86
2018-09-29T01:02:07.431Z,102899.81
2018-09-29T01:04:36.028Z,102913.49
2018-09-29T01:07:04.625Z,102907.80
2018-09-29T01:09:33.199Z,102905.94
2018-09-29T01:12:01.818Z,102898.73
2018-09-29T01:14:30.338Z,102899.12
2018-09-29T01:16:58.986Z,102894.48
2018-09-29T01:19:27.589Z,102885.80
2018-09-29T01:21:56.163Z,102891.23
2018-09-29T01:24:24.970Z,102886.48
2018-09-29T01:26:53.709Z,102890.89
2018-09-29T01:32:03.064Z,102884.97
2018-09-29T01:34:31.661Z,102887.16
2018-09-29T01:37:00.305Z,102886.53
2018-09-29T01:39:28.950Z,102888.62
2018-09-29T01:41:57.583Z,102882.53
2018-09-29T01:44:26.124Z,102886.87
2018-09-29T01:46:54.712Z,102879.65
2018-09-29T01:49:23.279Z,102877.03
2018-09-29T01:51:51.908Z,102880.38
2018-09-29T01:54:20.474Z,102879.51
2018-09-29T01:56:49.679Z,102872.88
2018-09-29T01:59:18.245Z,102884.34
2018-09-29T02:01:47.067Z,102887.40
2018-09-29T02:04:16.304Z,102882.70
2018-09-29T02:06:45.033Z,102881.58
2018-09-29T02:09:13.578Z,102883.44
2018-09-29T02:11:42.165Z,102887.70
2018-09-29T02:14:10.818Z,102882.03
2018-09-29T02:16:39.535Z,102882.48
2018-09-29T02:19:08.139Z,102881.53
2018-09-29T02:21:36.847Z,102885.80
2018-09-29T02:24:05.447Z,102886.20
2018-09-29T02:26:34.484Z,102886.48
2018-09-29T02:29:03.182Z,102884.09
2018-09-29T02:31:32.754Z,102882.03
2018-09-29T02:34:01.465Z,102882.38
2018-09-29T02:36:30.833Z,102885.33
2018-09-29T02:38:59.478Z,102880.70
2018-09-29T02:41:28.165Z,102878.81
2018-09-29T02:43:56.747Z,102881.07
2018-09-29T02:46:26.957Z,102873.87
2018-09-29T02:48:56.657Z,102880.23
2018-09-29T02:51:25.242Z,102873.87
2018-09-29T02:53:53.838Z,102876.67
2018-09-29T02:56:22.429Z,102870.44
2018-09-29T02:58:51.168Z,102876.14
2018-09-29T03:01:19.850Z,102868.88
2018-09-29T03:03:48.572Z,102871.92
2018-09-29T03:06:17.777Z,102869.38
2018-09-29T03:08:46.874Z,102873.34
2018-09-29T03:11:16.248Z,102873.69
2018-09-29T03:13:45.003Z,102872.96
2018-09-29T03:16:14.337Z,102876.67
2018-09-29T03:18:43.030Z,102874.44
2018-09-29T03:21:11.649Z,102872.52
2018-09-29T03:23:40.335Z,102882.39
2018-09-29T03:26:08.953Z,102880.19
2018-09-29T03:28:38.246Z,102882.28
2018-09-29T03:31:07.269Z,102883.06
2018-09-29T03:33:35.827Z,102873.47
2018-09-29T03:36:04.468Z,102882.51
2018-09-29T03:38:33.849Z,102878.88
2018-09-29T03:41:02.453Z,102879.06
2018-09-29T03:43:31.058Z,102880.13
2018-09-29T03:45:59.693Z,102876.47
2018-09-29T03:48:28.226Z,102878.73
2018-09-29T03:50:56.905Z,102874.32
2018-09-29T03:53:25.692Z,102873.75
2018-09-29T03:55:54.144Z,102867.61
2018-09-29T03:58:22.694Z,102871.23
2018-09-29T04:00:51.232Z,102868.80
2018-09-29T04:03:19.747Z,102875.30
2018-09-29T04:05:49.743Z,102879.67
2018-09-29T04:08:18.337Z,102875.30
2018-09-29T04:10:48.049Z,102870.95
2018-09-29T04:13:16.618Z,102870.77
2018-09-29T04:15:45.327Z,102867.79
2018-09-29T04:18:13.928Z,102864.70
2018-09-29T04:20:42.618Z,102869.71
2018-09-29T04:23:11.303Z,102867.00
2018-09-29T04:25:39.888Z,102872.46
2018-09-29T04:28:08.984Z,102878.60
2018-09-29T04:30:37.993Z,102880.41
2018-09-29T04:33:07.390Z,102879.88
2018-09-29T04:35:36.002Z,102884.94
2018-09-29T04:38:04.844Z,102879.41
2018-09-29T04:40:33.423Z,102879.58
2018-09-29T04:43:02.998Z,102888.13
2018-09-29T04:45:31.579Z,102885.30
2018-09-29T04:48:00.244Z,102887.91
2018-09-29T04:50:28.814Z,102892.08
2018-09-29T04:52:57.418Z,102899.69
2018-09-29T04:55:27.111Z,102903.73
2018-09-29T04:57:56.312Z,102904.91
2018-09-29T05:00:24.899Z,102907.47
2018-09-29T05:02:53.532Z,102914.42
2018-09-29T05:05:22.169Z,102914.78
2018-09-29T05:07:50.907Z,102911.16
2018-09-29T05:10:19.663Z,102908.20
2018-09-29T05:12:48.257Z,102909.91
2018-09-29T05:15:16.931Z,102905.27
2018-09-29T05:17:45.554Z,102910.95
2018-09-29T05:20:14.133Z,102907.35
2018-09-29T05:22:42.761Z,102908.05
2018-09-29T05:25:11.667Z,102903.66
2018-09-29T05:27:40.883Z,102902.48
2018-09-29T05:30:10.429Z,102900.44
2018-09-29T05:32:38.949Z,102908.66
2018-09-29T05:35:08.642Z,102911.23
2018-09-29T05:37:37.951Z,102908.28
2018-09-29T05:40:06.759Z,102904.23
2018-09-29T05:42:35.467Z,102909.26
2018-09-29T05:45:04.146Z,102903.91
2018-09-29T05:47:33.313Z,102897.95
2018-09-29T05:50:01.966Z,102900.50
2018-09-29T05:52:30.562Z,102899.23
2018-09-29T05:54:59.319Z,102901.94
2018-09-29T05:57:27.942Z,102900.42
2018-09-29T05:59:56.702Z,102903.67
2018-09-29T06:02:25.369Z,102905.96
2018-09-29T06:04:53.909Z,102907.27
2018-09-29T06:07:22.640Z,102903.70
2018-09-29T06:09:51.929Z,102901.81
2018-09-29T06:12:20.620Z,102907.67
2018-09-29T06:14:49.496Z,102912.38
2018-09-29T06:17:18.088Z,102916.06
2018-09-29T06:19:46.823Z,102913.86
2018-09-29T06:22:15.554Z,102919.30
2018-09-29T06:24:44.320Z,102923.19
2018-09-29T06:27:12.931Z,102928.23
2018-09-29T06:29:41.488Z,102924.80
2018-09-29T06:32:10.108Z,102923.96
2018-09-29T06:34:39.724Z,102920.17
2018-09-29T06:37:09.578Z,102924.81
2018-09-29T06:39:39.154Z,102927.63
2018-09-29T06:42:07.684Z,102927.73
2018-09-29T06:44:36.398Z,102922.29
2018-09-29T06:47:05.032Z,102924.31
2018-09-29T06:49:33.783Z,102924.17
2018-09-29T06:52:03.092Z,102924.53
2018-09-29T06:54:32.316Z,102920.25
2018-09-29T06:57:02.033Z,102926.04
2018-09-29T06:59:30.730Z,102916.42
2018-09-29T07:02:00.889Z,102920.47
2018-09-29T07:04:29.742Z,102916.44
2018-09-29T07:06:58.322Z,102919.95
2018-09-29T07:09:26.898Z,102917.90
2018-09-29T07:11:55.504Z,102911.13
2018-09-29T07:14:24.673Z,102900.92
2018-09-29T07:16:53.365Z,102907.70
2018-09-29T07:19:22.905Z,102906.52
2018-09-29T07:21:52.121Z,102904.31
2018-09-29T07:24:21.367Z,102909.73
2018-09-29T07:26:50.647Z,102908.44
2018-09-29T07:29:19.183Z,102914.52
2018-09-29T07:31:48.665Z,102909.09
2018-09-29T07:34:17.438Z,102916.30
2018-09-29T07:36:46.542Z,102915.13
2018-09-29T07:39:15.925Z,102915.36
2018-09-29T07:41:44.477Z,102917.92
2018-09-29T07:44:13.021Z,102908.33
2018-09-29T07:46:42.683Z,102906.83
2018-09-29T07:49:11.298Z,102898.80
2018-09-29T07:51:40.598Z,102897.05
2018-09-29T07:54:09.822Z,102902.72
2018-09-29T07:56:38.507Z,102902.45
2018-09-29T07:59:07.256Z,102904.73
2018-09-29T08:01:35.777Z,102903.80
2018-09-29T08:04:04.692Z,102900.53
2018-09-29T08:06:33.445Z,102891.53
2018-09-29T08:09:01.944Z,102907.86
2018-09-29T08:11:31.169Z,102892.64
2018-09-29T08:14:00.023Z,102901.06
2018-09-29T08:16:29.342Z,102904.59
2018-09-29T08:18:58.013Z,102899.41
2018-09-29T08:21:26.617Z,102902.94
2018-09-29T08:23:55.322Z,102901.56
2018-09-29T08:26:23.983Z,102896.55
2018-09-29T08:28:52.653Z,102892.68
2018-09-29T08:31:21.289Z,102895.03
2018-09-29T08:33:49.978Z,102897.92
2018-09-29T08:36:19.258Z,102896.14
2018-09-29T08:38:47.975Z,102896.48
2018-09-29T08:41:16.628Z,102890.02
2018-09-29T08:43:45.229Z,102887.31
2018-09-29T08:46:13.976Z,102892.44
2018-09-29T08:48:42.558Z,102883.05
2018-09-29T08:51:11.232Z,102876.08
2018-09-29T08:53:40.655Z,102873.78
2018-09-29T08:56:09.179Z,102865.88
2018-09-29T08:58:37.764Z,102868.35
2018-09-29T09:01:06.504Z,102868.84
2018-09-29T09:03:35.493Z,102859.36
2018-09-29T09:06:04.123Z,102863.94
2018-09-29T09:08:33.298Z,102860.20
2018-09-29T09:11:01.869Z,102854.84
2018-09-29T09:13:30.532Z,102856.16
2018-09-29T09:15:59.182Z,102852.55
2018-09-29T09:18:27.798Z,102851.17
2018-09-29T09:20:56.338Z,102853.95
2018-09-29T09:23:25.033Z,102843.16
2018-09-29T09:25:53.579Z,102845.75
2018-09-29T09:28:22.844Z,102839.23
2018-09-29T09:30:51.462Z,102836.64
2018-09-29T09:33:20.063Z,102840.97
2018-09-29T09:35:48.657Z,102820.77
2018-09-29T09:38:17.392Z,102817.45
2018-09-29T09:40:46.649Z,102815.92
2018-09-29T09:43:15.313Z,102811.86
2018-09-29T09:45:43.952Z,102813.70
2018-09-29T09:48:13.108Z,102808.84
2018-09-29T09:50:42.301Z,102803.33
2018-09-29T09:53:10.914Z,102810.44
2018-09-29T09:55:39.768Z,102807.08
2018-09-29T09:58:08.348Z,102798.80
2018-09-29T10:00:43.896Z,102804.95
2018-09-29T10:03:17.706Z,102789.53
2018-09-29T10:05:46.277Z,102793.21
2018-09-29T10:08:14.959Z,102786.27
2018-09-29T10:13:18.867Z,102780.50
2018-09-29T10:15:47.793Z,102779.77
2018-09-29T10:18:17.112Z,102775.23
2018-09-29T10:20:46.511Z,102763.85
2018-09-29T10:23:15.194Z,102763.83
2018-09-29T10:25:44.090Z,102761.06
2018-09-29T10:28:12.707Z,102755.65
2018-09-29T10:30:41.332Z,102752.27
2018-09-29T10:33:34.460Z,102746.22
2018-09-29T10:36:03.168Z,102743.98
2018-09-29T10:38:31.803Z,102744.84
2018-09-29T10:41:01.178Z,102741.77
2018-09-29T10:43:29.819Z,102740.42
2018-09-29T10:45:58.936Z,102732.00
2018-09-29T10:48:28.278Z,102729.62
2018-09-29T10:50:56.952Z,102730.38
2018-09-29T10:53:25.887Z,102726.67
2018-09-29T10:55:54.522Z,102725.06
2018-09-29T10:58:23.038Z,102722.78
2018-09-29T11:00:52.247Z,102723.59
2018-09-29T11:03:21.198Z,102723.92
2018-09-29T11:05:50.401Z,102723.11
2018-09-29T11:08:19.162Z,102719.05
2018-09-29T11:10:47.826Z,102714.81
2018-09-29T11:13:17.268Z,102707.15
2018-09-29T11:15:45.946Z,102704.81
2018-09-29T11:25:10.138Z,102697.77
2018-09-29T11:27:38.791Z,102686.88
2018-09-29T11:30:07.659Z,102674.32
2018-09-29T11:32:36.317Z,102670.59
2018-09-29T11:35:05.381Z,102668.41
2018-09-29T11:37:34.098Z,102658.48
2018-09-29T11:40:02.818Z,102656.50
2018-09-29T11:42:31.386Z,102653.70
2018-09-29T11:45:00.081Z,102650.48
2018-09-29T11:47:28.753Z,102638.66
2018-09-29T11:49:57.279Z,102627.20
2018-09-29T11:52:25.829Z,102626.59
2018-09-29T11:54:54.605Z,102620.45
2018-09-29T11:57:23.345Z,102620.34
2018-09-29T11:59:52.170Z,102613.39
2018-09-29T12:02:21.597Z,102608.16
2018-09-29T12:04:50.390Z,102618.09
2018-09-29T12:07:18.997Z,102620.52
2018-09-29T12:09:48.551Z,102599.78
2018-09-29T12:12:17.132Z,102603.82
2018-09-29T12:14:46.203Z,102602.48
2018-09-29T12:17:14.916Z,102593.83
2018-09-29T12:19:44.601Z,102595.28
2018-09-29T12:22:13.911Z,102588.00
2018-09-29T12:24:42.596Z,102581.42
2018-09-29T12:27:11.142Z,102580.22
2018-09-29T12:29:39.836Z,102567.52
2018-09-29T12:32:08.480Z,102566.73
2018-09-29T12:34:37.783Z,102562.98
2018-09-29T12:37:06.729Z,102554.39
2018-09-29T12:39:35.507Z,102551.61
2018-09-29T12:42:04.046Z,102548.61
2018-09-29T12:44:33.507Z,102549.49
2018-09-29T12:47:02.023Z,102548.63
2018-09-29T12:49:30.761Z,102538.92
2018-09-29T12:51:59.418Z,102535.27
2018-09-29T12:54:28.079Z,102536.23
2018-09-29T12:56:56.822Z,102535.44
2018-09-29T12:59:25.478Z,102544.56
2018-09-29T13:01:53.992Z,102535.20
2018-09-29T13:04:22.601Z,102535.02
2018-09-29T13:06:51.185Z,102525.43
2018-09-29T13:09:19.775Z,102518.54
2018-09-29T13:11:48.999Z,102521.20
2018-09-29T13:14:17.657Z,102518.75
2018-09-29T13:16:47.164Z,102506.56
2018-09-29T13:19:15.728Z,102503.23
2018-09-29T13:21:45.147Z,102495.56
2018-09-29T13:24:13.737Z,102486.68
2018-09-29T13:26:42.306Z,102494.38
2018-09-29T13:29:11.006Z,102491.77
2018-09-29T13:31:39.593Z,102487.07
2018-09-29T13:34:08.962Z,102483.39
2018-09-29T13:36:37.692Z,102477.79
2018-09-29T13:39:07.407Z,102474.88
2018-09-29T13:41:35.964Z,102473.11
2018-09-29T13:44:04.591Z,102467.92
2018-09-29T13:46:33.286Z,102457.56
2018-09-29T13:49:02.046Z,102452.61
2018-09-29T13:51:30.690Z,102449.02
2018-09-29T13:53:59.360Z,102439.33
2018-09-29T13:56:28.851Z,102436.58
2018-09-29T13:58:57.390Z,102430.30
2018-09-29T14:01:26.083Z,102433.55
2018-09-29T14:03:55.347Z,102428.33
2018-09-29T14:06:24.032Z,102426.89
2018-09-29T14:08:53.297Z,102419.68
2018-09-29T14:11:22.552Z,102411.06
2018-09-29T14:13:51.300Z,102415.66
2018-09-29T14:16:20.033Z,102414.66
2018-09-29T14:18:49.576Z,102405.83
2018-09-29T14:21:19.010Z,102398.21
2018-09-29T14:23:47.797Z,102395.81
2018-09-29T14:26:16.567Z,102388.90
2018-09-29T14:28:45.152Z,102386.25
2018-09-29T14:31:13.835Z,102389.44
2018-09-29T14:33:42.424Z,102380.52
2018-09-29T14:36:11.028Z,102375.16
2018-09-29T14:38:39.650Z,102369.83
2018-09-29T14:41:09.106Z,102365.23
2018-09-29T14:43:37.751Z,102363.92
2018-09-29T14:46:06.483Z,102359.57
2018-09-29T14:48:35.837Z,102359.57
2018-09-29T14:51:04.437Z,102359.43
2018-09-29T14:53:33.516Z,102354.69
2018-09-29T14:56:02.203Z,102350.65
2018-09-29T14:58:31.160Z,102346.47
2018-09-29T15:01:00.362Z,102342.34
2018-09-29T15:03:29.779Z,102338.63
2018-09-29T15:05:58.287Z,102337.28
2018-09-29T15:08:26.945Z,102341.41
2018-09-29T15:10:55.497Z,102331.81
2018-09-29T15:13:24.492Z,102328.87
2018-09-29T15:15:53.028Z,102330.31
2018-09-29T15:18:22.283Z,102336.37
2018-09-29T15:20:50.952Z,102328.80
2018-09-29T15:23:20.138Z,102328.81
2018-09-29T15:25:49.901Z,102316.05
2018-09-29T15:28:19.147Z,102318.20
2018-09-29T15:30:50.526Z,102313.45
2018-09-29T15:33:19.358Z,102314.33
2018-09-29T15:35:47.996Z,102306.83
2018-09-29T15:38:17.203Z,102308.44
2018-09-29T15:40:46.452Z,102306.02
2018-09-29T15:43:15.142Z,102303.03
2018-09-29T15:45:44.495Z,102303.18
2018-09-29T15:48:13.716Z,102298.27
2018-09-29T15:50:42.389Z,102298.24
2018-09-29T15:53:11.141Z,102301.55
2018-09-29T15:55:41.984Z,102296.72
2018-09-29T15:58:11.061Z,102290.95
2018-09-29T16:00:40.524Z,102293.63
2018-09-29T16:03:09.203Z,102284.57
2018-09-29T16:05:37.806Z,102293.22
2018-09-29T16:08:06.477Z,102288.45
2018-09-29T16:10:35.203Z,102286.09
2018-09-29T16:13:03.772Z,102284.53
2018-09-29T16:15:32.498Z,102276.91
2018-09-29T16:18:01.755Z,102275.94
2018-09-29T16:20:30.472Z,102272.71
2018-09-29T16:22:59.140Z,102266.93
2018-09-29T16:25:27.705Z,102259.11
2018-09-29T16:27:57.042Z,102264.93
2018-09-29T16:30:25.736Z,102260.80
2018-09-29T16:32:54.441Z,102257.81
2018-09-29T16:35:23.778Z,102258.09
2018-09-29T16:37:52.662Z,102264.25
2018-09-29T16:40:21.285Z,102265.13
2018-09-29T16:42:49.868Z,102256.22
2018-09-29T16:45:19.392Z,102259.31
2018-09-29T16:47:47.955Z,102265.12
2018-09-29T16:50:16.622Z,102258.23
2018-09-29T16:52:46.082Z,102256.77
2018-09-29T16:55:14.797Z,102256.76
2018-09-29T16:57:43.582Z,102253.05
2018-09-29T17:00:12.289Z,102256.15
2018-09-29T17:02:40.971Z,102252.11
2018-09-29T17:05:10.326Z,102256.89
2018-09-29T17:07:38.921Z,102253.22
2018-09-29T17:10:07.678Z,102251.86
2018-09-29T17:12:37.085Z,102256.41
2018-09-29T17:15:05.913Z,102252.88
2018-09-29T17:17:35.672Z,102253.42
2018-09-29T17:20:04.291Z,102251.65
2018-09-29T17:22:32.837Z,102258.51
2018-09-29T17:25:01.491Z,102261.22
2018-09-29T17:27:32.363Z,102262.49
2018-09-29T17:30:01.057Z,102261.30
2018-09-29T17:32:29.862Z,102258.94
2018-09-29T17:34:59.114Z,102267.45
2018-09-29T17:37:27.762Z,102265.75
2018-09-29T17:39:57.180Z,102271.68
2018-09-29T17:42:25.851Z,102260.94
2018-09-29T17:44:55.065Z,102262.34
2018-09-29T17:47:24.413Z,102262.59
2018-09-29T17:49:53.081Z,102256.11
2018-09-29T17:52:21.905Z,102251.83
2018-09-29T17:54:51.921Z,102247.40
2018-09-29T17:57:20.546Z,102244.95
2018-09-29T17:59:49.573Z,102244.09
2018-09-29T18:02:18.307Z,102237.03
2018-09-29T18:04:46.867Z,102239.04
2018-09-29T18:07:15.397Z,102235.16
2018-09-29T18:09:43.970Z,102232.34
2018-09-29T18:12:12.545Z,102239.29
2018-09-29T18:14:41.172Z,102233.45
2018-09-29T18:17:09.766Z,102231.66
2018-09-29T18:19:38.311Z,102234.16
2018-09-29T18:22:07.110Z,102227.38
2018-09-29T18:24:35.677Z,102233.08
2018-09-29T18:27:04.240Z,102234.47
2018-09-29T18:29:32.844Z,102223.99
2018-09-29T18:32:02.160Z,102231.43
2018-09-29T18:34:30.766Z,102233.22
2018-09-29T18:36:59.425Z,102229.73
2018-09-29T18:39:28.008Z,102231.83
2018-09-29T18:41:56.591Z,102229.47
2018-09-29T18:44:25.191Z,102227.98
2018-09-29T18:46:53.762Z,102225.05
2018-09-29T18:49:22.380Z,102230.87
2018-09-29T18:51:50.942Z,102226.86
2018-09-29T18:54:19.771Z,102226.89
2018-09-29T18:56:48.393Z,102225.28
2018-09-29T18:59:17.044Z,102231.78
2018-09-29T19:01:45.614Z,102232.53
2018-09-29T19:04:14.312Z,102234.89
2018-09-29T19:06:42.843Z,102233.50
2018-09-29T19:09:12.936Z,102243.73
2018-09-29T19:11:42.421Z,102238.36
2018-09-29T19:14:11.021Z,102245.97
2018-09-29T19:16:39.615Z,102236.48
2018-09-29T19:19:08.208Z,102246.89
2018-09-29T19:21:36.791Z,102241.77
2018-09-29T19:24:05.476Z,102248.56
2018-09-29T19:26:34.064Z,102248.86
2018-09-29T19:29:02.996Z,102242.60
2018-09-29T19:31:31.607Z,102238.78
2018-09-29T19:34:00.216Z,102242.59
2018-09-29T19:36:28.780Z,102245.07
2018-09-29T19:38:57.361Z,102236.94
2018-09-29T19:41:25.910Z,102232.28
2018-09-29T19:43:54.471Z,102230.31
2018-09-29T19:46:23.151Z,102224.89
2018-09-29T19:48:51.790Z,102228.47
2018-09-29T19:51:20.456Z,102223.59
2018-09-29T19:53:49.892Z,102214.95
2018-09-29T19:56:18.477Z,102215.48
2018-09-29T19:58:47.052Z,102212.57
2018-09-29T20:01:16.474Z,102216.03
2018-09-29T20:03:45.120Z,102222.70
2018-09-29T20:06:13.676Z,102219.66
2018-09-29T20:08:42.324Z,102219.94
2018-09-29T20:11:10.917Z,102209.25
2018-09-29T20:13:39.637Z,102211.45
2018-09-29T20:16:08.369Z,102199.81
2018-09-29T20:18:36.915Z,102204.36
2018-09-29T20:21:05.481Z,102205.97
2018-09-29T20:23:34.069Z,102202.22
2018-09-29T20:26:02.714Z,102209.27
2018-09-29T20:28:31.391Z,102200.34
2018-09-29T20:31:00.210Z,102205.49
2018-09-29T20:33:28.766Z,102203.30
2018-09-29T20:35:57.816Z,102195.36
2018-09-29T20:38:26.594Z,102206.95
2018-09-29T20:40:55.345Z,102201.72
2018-09-29T20:43:24.095Z,102199.62
2018-09-29T20:45:52.705Z,102185.11
2018-09-29T20:48:21.310Z,102188.15
2018-09-29T20:50:50.338Z,102183.28
2018-09-29T20:53:18.905Z,102182.72
2018-09-29T20:55:47.500Z,102178.91
2018-09-29T20:58:16.087Z,102181.38
2018-09-29T21:00:44.652Z,102187.62
2018-09-29T21:03:13.351Z,102184.11
2018-09-29T21:05:41.930Z,102181.94
2018-09-29T21:08:10.518Z,102179.19
2018-09-29T21:10:39.067Z,102173.76
2018-09-29T21:13:08.486Z,102168.09
2018-09-29T21:15:37.235Z,102157.01
2018-09-29T21:18:05.822Z,102155.11
2018-09-29T21:20:34.359Z,102151.05
2018-09-29T21:23:02.895Z,102149.67
2018-09-29T21:25:31.520Z,102144.00
2018-09-29T21:28:00.057Z,102144.23
2018-09-29T21:30:28.632Z,102134.72
2018-09-29T21:32:57.287Z,102135.53
2018-09-29T21:35:25.931Z,102136.37
2018-09-29T21:37:54.473Z,102135.05
2018-09-29T21:40:23.109Z,102129.92
2018-09-29T21:42:51.701Z,102125.86
2018-09-29T21:45:20.335Z,102121.72
2018-09-29T21:47:48.985Z,102120.79
2018-09-29T21:50:17.605Z,102119.41
2018-09-29T21:52:46.160Z,102111.05
2018-09-29T21:55:14.761Z,102109.55
2018-09-29T21:57:43.319Z,102107.42
2018-09-29T22:00:12.035Z,102094.72
2018-09-29T22:02:40.630Z,102084.97
2018-09-29T22:05:09.251Z,102086.00
2018-09-29T22:07:37.886Z,102082.77
2018-09-29T22:10:06.479Z,102079.28
2018-09-29T22:12:35.001Z,102081.16
2018-09-29T22:15:03.630Z,102084.97
2018-09-29T22:17:32.215Z,102082.23
2018-09-29T22:20:00.822Z,102079.75
2018-09-29T22:22:29.395Z,102076.95
2018-09-29T22:24:57.928Z,102068.01
2018-09-29T22:27:26.445Z,102063.78
2018-09-29T22:29:55.046Z,102070.01
2018-09-29T22:32:23.591Z,102057.63
2018-09-29T22:34:52.172Z,102054.38
2018-09-29T22:37:20.739Z,102064.39
2018-09-29T22:39:49.341Z,102059.77
2018-09-29T22:42:17.920Z,102062.47
2018-09-29T22:44:46.431Z,102055.45
2018-09-29T22:47:15.027Z,102058.98
2018-09-29T22:49:43.587Z,102053.84
2018-09-29T22:52:12.252Z,102048.95
2018-09-29T22:54:40.830Z,102054.63
2018-09-29T22:57:09.391Z,102051.92
2018-09-29T22:59:37.995Z,102060.55
2018-09-29T23:02:07.082Z,102056.16
2018-09-29T23:04:35.661Z,102063.80
2018-09-29T23:07:04.274Z,102056.24
2018-09-29T23:09:32.890Z,102060.58
2018-09-29T23:12:01.470Z,102057.08
2018-09-29T23:14:31.076Z,102064.64
2018-09-29T23:16:59.596Z,102067.09
2018-09-29T23:19:28.245Z,102060.06
2018-09-29T23:21:56.806Z,102058.38
2018-09-29T23:24:25.985Z,102060.55
2018-09-29T23:26:54.552Z,102063.70
2018-09-29T23:29:23.050Z,102066.03
2018-09-29T23:31:51.659Z,102064.81
2018-09-29T23:34:20.520Z,102067.39
2018-09-29T23:36:49.168Z,102059.64
2018-09-29T23:39:17.770Z,102043.54
2018-09-29T23:41:46.404Z,102042.58
2018-09-29T23:44:14.959Z,102033.14
2018-09-29T23:46:43.556Z,102038.36
2018-09-29T23:49:12.590Z,102042.17
2018-09-29T23:51:41.171Z,102041.64
2018-09-29T23:54:09.688Z,102034.59
2018-09-29T23:56:38.316Z,102037.77
2018-09-29T23:59:06.879Z,102038.80
